sensor_id;sensor_type;location;lat;lon;timestamp;pressure;altitude;pressure_sealevel;temperature;humidity
43298;BME280;28892;55.640;37.532;2023-01-29T00:01:42;98898.28;;;-0.21;65.32
43298;BME280;28892;55.640;37.532;2023-01-29T00:04:07;98889.00;;;-0.13;64.91
43298;BME280;28892;55.640;37.532;2023-01-29T00:06:33;98898.25;;;-0.09;64.58
43298;BME280;28892;55.640;37.532;2023-01-29T00:08:59;98896.69;;;-0.12;64.05
43298;BME280;28892;55.640;37.532;2023-01-29T00:11:25;98902.88;;;-0.24;63.55
43298;BME280;28892;55.640;37.532;2023-01-29T00:13:51;98901.34;;;-0.27;63.84
43298;BME280;28892;55.640;37.532;2023-01-29T00:16:18;98905.00;;;-0.18;63.99
43298;BME280;28892;55.640;37.532;2023-01-29T00:18:44;98902.28;;;-0.28;63.10
43298;BME280;28892;55.640;37.532;2023-01-29T00:21:11;98888.44;;;-0.40;63.40
43298;BME280;28892;55.640;37.532;2023-01-29T00:23:37;98892.34;;;-0.34;63.83
43298;BME280;28892;55.640;37.532;2023-01-29T00:26:03;98896.97;;;-0.26;63.57
43298;BME280;28892;55.640;37.532;2023-01-29T00:28:29;98890.78;;;-0.14;63.37
43298;BME280;28892;55.640;37.532;2023-01-29T00:30:55;98884.38;;;-0.10;62.94
43298;BME280;28892;55.640;37.532;2023-01-29T00:33:20;98882.00;;;-0.02;63.19
43298;BME280;28892;55.640;37.532;2023-01-29T00:35:46;98881.66;;;-0.08;62.62
43298;BME280;28892;55.640;37.532;2023-01-29T00:38:13;98882.00;;;-0.02;62.99
43298;BME280;28892;55.640;37.532;2023-01-29T00:40:40;98880.81;;;-0.09;62.65
43298;BME280;28892;55.640;37.532;2023-01-29T00:43:24;98876.94;;;-0.26;62.64
43298;BME280;28892;55.640;37.532;2023-01-29T00:46:09;98874.59;;;-0.52;63.18
43298;BME280;28892;55.640;37.532;2023-01-29T00:48:35;98872.81;;;-0.63;64.06
43298;BME280;28892;55.640;37.532;2023-01-29T00:51:02;98874.00;;;-0.44;64.09
43298;BME280;28892;55.640;37.532;2023-01-29T00:53:28;98872.44;;;-0.35;63.84
43298;BME280;28892;55.640;37.532;2023-01-29T00:55:53;98853.25;;;-0.34;63.47
43298;BME280;28892;55.640;37.532;2023-01-29T00:58:19;98865.91;;;-0.30;63.23
43298;BME280;28892;55.640;37.532;2023-01-29T01:00:47;98865.69;;;-0.26;63.10
43298;BME280;28892;55.640;37.532;2023-01-29T01:03:14;98872.66;;;-0.27;63.19
43298;BME280;28892;55.640;37.532;2023-01-29T01:05:40;98873.25;;;-0.23;63.26
43298;BME280;28892;55.640;37.532;2023-01-29T01:08:08;98877.53;;;-0.34;63.26
43298;BME280;28892;55.640;37.532;2023-01-29T01:11:01;98878.38;;;-0.45;63.54
43298;BME280;28892;55.640;37.532;2023-01-29T01:13:28;98867.00;;;-0.55;63.63
43298;BME280;28892;55.640;37.532;2023-01-29T01:15:54;98864.78;;;-0.48;64.18
43298;BME280;28892;55.640;37.532;2023-01-29T01:18:19;98863.69;;;-0.57;64.03
43298;BME280;28892;55.640;37.532;2023-01-29T01:20:47;98864.97;;;-0.40;64.23
43298;BME280;28892;55.640;37.532;2023-01-29T01:23:17;98871.38;;;-0.33;63.79
43298;BME280;28892;55.640;37.532;2023-01-29T01:25:43;98870.91;;;-0.26;63.53
43298;BME280;28892;55.640;37.532;2023-01-29T01:28:09;98873.31;;;-0.69;63.95
43298;BME280;28892;55.640;37.532;2023-01-29T01:30:36;98880.88;;;-0.77;64.33
43298;BME280;28892;55.640;37.532;2023-01-29T01:33:02;98885.84;;;-0.74;64.30
43298;BME280;28892;55.640;37.532;2023-01-29T01:35:29;98879.06;;;-0.88;64.06
43298;BME280;28892;55.640;37.532;2023-01-29T01:37:55;98874.13;;;-0.80;63.78
43298;BME280;28892;55.640;37.532;2023-01-29T01:40:23;98865.84;;;-0.85;63.51
43298;BME280;28892;55.640;37.532;2023-01-29T01:42:55;98865.69;;;-0.83;63.39
43298;BME280;28892;55.640;37.532;2023-01-29T01:48:04;98874.41;;;-1.30;64.47
43298;BME280;28892;55.640;37.532;2023-01-29T01:50:59;98866.63;;;-1.07;63.58
43298;BME280;28892;55.640;37.532;2023-01-29T01:53:34;98857.06;;;-1.07;62.66
43298;BME280;28892;55.640;37.532;2023-01-29T01:56:13;98860.63;;;-0.74;63.16
43298;BME280;28892;55.640;37.532;2023-01-29T01:58:55;98849.50;;;-0.64;61.62
43298;BME280;28892;55.640;37.532;2023-01-29T02:01:22;98855.19;;;-0.93;61.19
43298;BME280;28892;55.640;37.532;2023-01-29T02:04:04;98844.06;;;-0.73;62.02
43298;BME280;28892;55.640;37.532;2023-01-29T02:06:50;98844.66;;;-0.69;61.57
43298;BME280;28892;55.640;37.532;2023-01-29T02:09:49;98836.69;;;-0.56;61.34
43298;BME280;28892;55.640;37.532;2023-01-29T02:12:17;98835.03;;;-0.57;60.39
43298;BME280;28892;55.640;37.532;2023-01-29T02:14:43;98828.66;;;-0.53;60.00
43298;BME280;28892;55.640;37.532;2023-01-29T02:17:30;98832.41;;;-0.46;59.94
43298;BME280;28892;55.640;37.532;2023-01-29T02:20:12;98822.84;;;-0.57;59.48
43298;BME280;28892;55.640;37.532;2023-01-29T02:31:11;98807.59;;;-0.17;59.70
43298;BME280;28892;55.640;37.532;2023-01-29T02:36:36;98811.44;;;-0.33;58.96
43298;BME280;28892;55.640;37.532;2023-01-29T02:42:16;98791.72;;;-1.04;60.79
43298;BME280;28892;55.640;37.532;2023-01-29T02:44:51;98787.47;;;-0.93;60.73
43298;BME280;28892;55.640;37.532;2023-01-29T02:50:03;98795.63;;;-0.64;59.67
43298;BME280;28892;55.640;37.532;2023-01-29T02:55:15;98781.97;;;-0.56;59.29
43298;BME280;28892;55.640;37.532;2023-01-29T02:57:45;98768.19;;;-0.79;59.55
43298;BME280;28892;55.640;37.532;2023-01-29T03:02:54;98774.03;;;-0.54;59.27
43298;BME280;28892;55.640;37.532;2023-01-29T03:05:27;98775.28;;;-0.26;59.75
43298;BME280;28892;55.640;37.532;2023-01-29T03:08:00;98764.78;;;-0.36;57.91
43298;BME280;28892;55.640;37.532;2023-01-29T03:10:36;98770.41;;;-0.63;57.71
43298;BME280;28892;55.640;37.532;2023-01-29T03:13:24;98762.72;;;-0.76;58.68
43298;BME280;28892;55.640;37.532;2023-01-29T03:15:59;98761.88;;;-0.77;59.04
43298;BME280;28892;55.640;37.532;2023-01-29T03:18:39;98753.63;;;-0.93;58.97
43298;BME280;28892;55.640;37.532;2023-01-29T03:21:38;98748.50;;;-0.72;59.50
43298;BME280;28892;55.640;37.532;2023-01-29T03:27:27;98741.31;;;-0.36;59.02
43298;BME280;28892;55.640;37.532;2023-01-29T03:30:15;98744.38;;;-0.31;57.99
43298;BME280;28892;55.640;37.532;2023-01-29T03:33:13;98735.88;;;-0.44;57.89
43298;BME280;28892;55.640;37.532;2023-01-29T03:35:52;98727.84;;;-0.52;57.72
43298;BME280;28892;55.640;37.532;2023-01-29T03:38:21;98719.78;;;-1.05;58.51
43298;BME280;28892;55.640;37.532;2023-01-29T03:40:52;98709.81;;;-0.88;58.59
43298;BME280;28892;55.640;37.532;2023-01-29T03:54:27;98703.09;;;-1.25;58.82
43298;BME280;28892;55.640;37.532;2023-01-29T04:02:18;98685.03;;;-1.27;61.25
43298;BME280;28892;55.640;37.532;2023-01-29T04:04:49;98674.47;;;-1.02;60.45
43298;BME280;28892;55.640;37.532;2023-01-29T04:07:19;98679.09;;;-1.06;58.92
43298;BME280;28892;55.640;37.532;2023-01-29T04:10:02;98678.84;;;-1.14;59.25
43298;BME280;28892;55.640;37.532;2023-01-29T04:12:46;98664.66;;;-1.21;59.30
43298;BME280;28892;55.640;37.532;2023-01-29T04:15:15;98665.59;;;-1.11;59.72
43298;BME280;28892;55.640;37.532;2023-01-29T04:17:51;98660.78;;;-1.38;59.33
43298;BME280;28892;55.640;37.532;2023-01-29T04:20:28;98663.38;;;-1.50;60.20
43298;BME280;28892;55.640;37.532;2023-01-29T04:22:54;98663.03;;;-1.34;60.37
43298;BME280;28892;55.640;37.532;2023-01-29T04:25:22;98661.81;;;-1.07;60.59
43298;BME280;28892;55.640;37.532;2023-01-29T04:39:24;98658.88;;;-0.69;59.94
43298;BME280;28892;55.640;37.532;2023-01-29T04:41:57;98656.75;;;-0.64;58.94
43298;BME280;28892;55.640;37.532;2023-01-29T04:44:39;98653.47;;;-0.45;59.35
43298;BME280;28892;55.640;37.532;2023-01-29T04:50:23;98652.06;;;-0.28;59.29
43298;BME280;28892;55.640;37.532;2023-01-29T04:52:57;98655.38;;;-0.26;58.61
43298;BME280;28892;55.640;37.532;2023-01-29T04:58:15;98639.25;;;-0.20;58.34
43298;BME280;28892;55.640;37.532;2023-01-29T05:00:48;98637.38;;;-0.29;58.31
43298;BME280;28892;55.640;37.532;2023-01-29T05:03:15;98644.09;;;-0.48;58.29
43298;BME280;28892;55.640;37.532;2023-01-29T05:05:46;98638.69;;;-0.89;59.41
43298;BME280;28892;55.640;37.532;2023-01-29T05:08:18;98643.06;;;-0.89;59.43
43298;BME280;28892;55.640;37.532;2023-01-29T05:10:46;98632.13;;;-1.27;60.52
43298;BME280;28892;55.640;37.532;2023-01-29T05:13:14;98623.47;;;-1.05;60.15
43298;BME280;28892;55.640;37.532;2023-01-29T05:15:50;98628.25;;;-0.77;60.04
43298;BME280;28892;55.640;37.532;2023-01-29T05:18:18;98630.28;;;-0.92;59.25
43298;BME280;28892;55.640;37.532;2023-01-29T05:20:45;98639.63;;;-0.78;59.21
43298;BME280;28892;55.640;37.532;2023-01-29T05:23:19;98643.34;;;-0.71;58.88
43298;BME280;28892;55.640;37.532;2023-01-29T05:25:46;98649.06;;;-0.77;59.18
43298;BME280;28892;55.640;37.532;2023-01-29T05:28:12;98639.78;;;-1.03;59.06
43298;BME280;28892;55.640;37.532;2023-01-29T05:30:43;98642.53;;;-1.16;59.74
43298;BME280;28892;55.640;37.532;2023-01-29T05:33:15;98639.22;;;-1.18;59.99
43298;BME280;28892;55.640;37.532;2023-01-29T05:35:41;98639.31;;;-0.96;60.12
43298;BME280;28892;55.640;37.532;2023-01-29T05:38:07;98644.69;;;-1.21;59.97
43298;BME280;28892;55.640;37.532;2023-01-29T05:40:33;98643.59;;;-1.07;60.10
43298;BME280;28892;55.640;37.532;2023-01-29T05:42:59;98641.34;;;-1.00;59.82
43298;BME280;28892;55.640;37.532;2023-01-29T05:45:25;98636.19;;;-0.90;60.22
43298;BME280;28892;55.640;37.532;2023-01-29T05:47:55;98639.19;;;-1.06;59.31
43298;BME280;28892;55.640;37.532;2023-01-29T05:50:21;98638.59;;;-0.99;59.87
43298;BME280;28892;55.640;37.532;2023-01-29T05:52:47;98647.09;;;-0.85;59.83
43298;BME280;28892;55.640;37.532;2023-01-29T05:55:13;98639.75;;;-0.91;59.23
43298;BME280;28892;55.640;37.532;2023-01-29T05:57:39;98644.16;;;-0.92;59.57
43298;BME280;28892;55.640;37.532;2023-01-29T06:00:07;98647.53;;;-0.80;59.37
43298;BME280;28892;55.640;37.532;2023-01-29T06:02:38;98641.25;;;-0.77;59.85
43298;BME280;28892;55.640;37.532;2023-01-29T06:05:05;98642.63;;;-0.62;59.89
43298;BME280;28892;55.640;37.532;2023-01-29T06:07:30;98641.28;;;-0.56;59.49
43298;BME280;28892;55.640;37.532;2023-01-29T06:09:56;98653.81;;;-0.50;59.27
43298;BME280;28892;55.640;37.532;2023-01-29T06:12:22;98655.00;;;-0.43;59.41
43298;BME280;28892;55.640;37.532;2023-01-29T06:14:47;98651.38;;;-0.30;58.71
43298;BME280;28892;55.640;37.532;2023-01-29T06:17:13;98646.66;;;-0.36;58.40
43298;BME280;28892;55.640;37.532;2023-01-29T06:19:39;98638.91;;;-0.26;58.83
43298;BME280;28892;55.640;37.532;2023-01-29T06:22:05;98643.50;;;-0.19;58.72
43298;BME280;28892;55.640;37.532;2023-01-29T06:24:30;98638.28;;;-0.19;58.15
43298;BME280;28892;55.640;37.532;2023-01-29T06:26:59;98628.03;;;-0.10;58.41
43298;BME280;28892;55.640;37.532;2023-01-29T06:29:24;98630.09;;;-0.68;58.28
43298;BME280;28892;55.640;37.532;2023-01-29T06:31:50;98626.63;;;-0.90;59.71
43298;BME280;28892;55.640;37.532;2023-01-29T06:34:16;98619.63;;;-0.89;60.03
43298;BME280;28892;55.640;37.532;2023-01-29T06:36:42;98631.47;;;-0.85;60.04
43298;BME280;28892;55.640;37.532;2023-01-29T06:39:08;98626.66;;;-0.68;60.09
43298;BME280;28892;55.640;37.532;2023-01-29T06:41:34;98619.44;;;-0.44;59.52
43298;BME280;28892;55.640;37.532;2023-01-29T06:43:59;98618.25;;;-0.39;59.08
43298;BME280;28892;55.640;37.532;2023-01-29T06:46:28;98623.19;;;-0.36;58.66
43298;BME280;28892;55.640;37.532;2023-01-29T06:49:09;98613.56;;;-0.24;59.06
43298;BME280;28892;55.640;37.532;2023-01-29T06:51:35;98613.94;;;-0.29;58.45
43298;BME280;28892;55.640;37.532;2023-01-29T06:54:01;98625.31;;;-0.84;59.43
43298;BME280;28892;55.640;37.532;2023-01-29T06:56:27;98621.91;;;-0.63;60.31
43298;BME280;28892;55.640;37.532;2023-01-29T06:58:52;98616.50;;;-0.50;58.92
43298;BME280;28892;55.640;37.532;2023-01-29T07:01:18;98614.13;;;-1.07;59.74
43298;BME280;28892;55.640;37.532;2023-01-29T07:03:47;98602.16;;;-1.10;60.20
43298;BME280;28892;55.640;37.532;2023-01-29T07:06:13;98602.38;;;-1.69;62.31
43298;BME280;28892;55.640;37.532;2023-01-29T07:08:39;98597.28;;;-1.47;62.29
43298;BME280;28892;55.640;37.532;2023-01-29T07:11:05;98597.66;;;-1.63;62.20
43298;BME280;28892;55.640;37.532;2023-01-29T07:13:32;98590.81;;;-1.87;62.49
43298;BME280;28892;55.640;37.532;2023-01-29T07:16:01;98587.38;;;-1.65;62.71
43298;BME280;28892;55.640;37.532;2023-01-29T07:18:28;98593.75;;;-1.92;62.87
43298;BME280;28892;55.640;37.532;2023-01-29T07:20:54;98594.47;;;-1.78;63.16
43298;BME280;28892;55.640;37.532;2023-01-29T07:23:20;98591.75;;;-1.54;62.98
43298;BME280;28892;55.640;37.532;2023-01-29T07:25:46;98588.31;;;-1.55;62.07
43298;BME280;28892;55.640;37.532;2023-01-29T07:28:16;98597.31;;;-1.81;63.32
43298;BME280;28892;55.640;37.532;2023-01-29T07:30:42;98591.25;;;-1.59;63.44
43298;BME280;28892;55.640;37.532;2023-01-29T07:33:09;98582.59;;;-1.25;62.51
43298;BME280;28892;55.640;37.532;2023-01-29T07:35:37;98590.19;;;-0.90;61.21
43298;BME280;28892;55.640;37.532;2023-01-29T07:38:03;98587.09;;;-0.62;61.09
43298;BME280;28892;55.640;37.532;2023-01-29T07:40:29;98587.25;;;-0.43;60.26
43298;BME280;28892;55.640;37.532;2023-01-29T07:43:03;98592.19;;;-0.39;59.78
43298;BME280;28892;55.640;37.532;2023-01-29T07:45:33;98593.16;;;-0.94;60.43
43298;BME280;28892;55.640;37.532;2023-01-29T07:47:59;98591.41;;;-0.73;60.53
43298;BME280;28892;55.640;37.532;2023-01-29T07:50:26;98584.94;;;-0.57;59.83
43298;BME280;28892;55.640;37.532;2023-01-29T07:52:55;98578.59;;;-0.43;59.91
43298;BME280;28892;55.640;37.532;2023-01-29T07:55:21;98569.25;;;-0.67;59.24
43298;BME280;28892;55.640;37.532;2023-01-29T07:57:58;98579.03;;;-0.80;60.69
43298;BME280;28892;55.640;37.532;2023-01-29T08:00:24;98573.91;;;-1.70;61.85
43298;BME280;28892;55.640;37.532;2023-01-29T08:02:49;98557.97;;;-2.00;63.18
43298;BME280;28892;55.640;37.532;2023-01-29T08:05:15;98564.16;;;-1.45;63.05
43298;BME280;28892;55.640;37.532;2023-01-29T08:07:41;98553.84;;;-1.24;61.54
43298;BME280;28892;55.640;37.532;2023-01-29T08:10:07;98549.78;;;-0.84;61.62
43298;BME280;28892;55.640;37.532;2023-01-29T08:12:33;98560.03;;;-0.50;60.83
43298;BME280;28892;55.640;37.532;2023-01-29T08:14:59;98559.31;;;-0.73;59.49
43298;BME280;28892;55.640;37.532;2023-01-29T08:17:24;98552.56;;;-1.30;61.25
43298;BME280;28892;55.640;37.532;2023-01-29T08:19:50;98540.38;;;-0.96;61.40
43298;BME280;28892;55.640;37.532;2023-01-29T08:22:16;98540.31;;;-0.64;60.61
43298;BME280;28892;55.640;37.532;2023-01-29T08:24:42;98544.41;;;-1.04;60.51
43298;BME280;28892;55.640;37.532;2023-01-29T08:27:08;98524.13;;;-0.67;60.63
43298;BME280;28892;55.640;37.532;2023-01-29T08:29:34;98538.63;;;-0.32;59.79
43298;BME280;28892;55.640;37.532;2023-01-29T08:32:00;98539.13;;;-0.07;58.91
43298;BME280;28892;55.640;37.532;2023-01-29T08:34:26;98540.94;;;-0.50;57.75
43298;BME280;28892;55.640;37.532;2023-01-29T08:36:52;98537.81;;;-0.54;59.33
43298;BME280;28892;55.640;37.532;2023-01-29T08:39:18;98524.31;;;-0.38;58.88
43298;BME280;28892;55.640;37.532;2023-01-29T08:41:46;98530.31;;;-0.16;58.28
43298;BME280;28892;55.640;37.532;2023-01-29T08:44:12;98541.34;;;-0.03;58.32
43298;BME280;28892;55.640;37.532;2023-01-29T08:46:38;98533.22;;;-0.09;57.62
43298;BME280;28892;55.640;37.532;2023-01-29T08:49:05;98535.66;;;-0.39;57.78
43298;BME280;28892;55.640;37.532;2023-01-29T08:51:32;98533.31;;;-0.21;58.21
43298;BME280;28892;55.640;37.532;2023-01-29T08:53:58;98533.94;;;0.03;57.56
43298;BME280;28892;55.640;37.532;2023-01-29T08:56:24;98529.31;;;0.06;57.08
43298;BME280;28892;55.640;37.532;2023-01-29T08:58:50;98523.56;;;0.12;56.90
43298;BME280;28892;55.640;37.532;2023-01-29T09:01:18;98538.84;;;0.27;56.89
43298;BME280;28892;55.640;37.532;2023-01-29T09:03:46;98519.06;;;0.24;56.23
43298;BME280;28892;55.640;37.532;2023-01-29T09:06:15;98520.19;;;0.32;56.59
43298;BME280;28892;55.640;37.532;2023-01-29T09:08:45;98519.50;;;0.39;56.19
43298;BME280;28892;55.640;37.532;2023-01-29T09:11:12;98511.84;;;0.48;56.41
43298;BME280;28892;55.640;37.532;2023-01-29T09:13:40;98508.28;;;0.59;55.76
43298;BME280;28892;55.640;37.532;2023-01-29T09:16:06;98505.13;;;0.65;55.97
43298;BME280;28892;55.640;37.532;2023-01-29T09:18:38;98503.16;;;0.37;54.68
43298;BME280;28892;55.640;37.532;2023-01-29T09:21:04;98518.00;;;0.37;55.67
43298;BME280;28892;55.640;37.532;2023-01-29T09:23:30;98530.53;;;-0.50;56.43
43298;BME280;28892;55.640;37.532;2023-01-29T09:25:56;98527.63;;;-1.11;58.78
43298;BME280;28892;55.640;37.532;2023-01-29T09:28:25;98507.69;;;-0.68;59.02
43298;BME280;28892;55.640;37.532;2023-01-29T09:30:51;98506.53;;;-0.54;57.42
43298;BME280;28892;55.640;37.532;2023-01-29T09:33:22;98490.75;;;-0.31;57.05
43298;BME280;28892;55.640;37.532;2023-01-29T09:35:52;98490.56;;;0.02;57.15
43298;BME280;28892;55.640;37.532;2023-01-29T09:38:18;98490.00;;;-0.12;56.29
43298;BME280;28892;55.640;37.532;2023-01-29T09:46:00;98485.16;;;0.24;56.57
43298;BME280;28892;55.640;37.532;2023-01-29T09:53:25;98482.47;;;0.75;56.11
43298;BME280;28892;55.640;37.532;2023-01-29T09:56:00;98484.66;;;0.70;55.86
43298;BME280;28892;55.640;37.532;2023-01-29T09:58:39;98474.09;;;0.81;55.68
43298;BME280;28892;55.640;37.532;2023-01-29T10:06:39;98461.84;;;1.02;54.87
43298;BME280;28892;55.640;37.532;2023-01-29T10:17:47;98459.34;;;0.31;56.78
43298;BME280;28892;55.640;37.532;2023-01-29T10:23:06;98439.84;;;0.25;56.34
43298;BME280;28892;55.640;37.532;2023-01-29T10:25:39;98429.31;;;0.47;56.24
43298;BME280;28892;55.640;37.532;2023-01-29T10:28:16;98419.94;;;0.74;55.78
43298;BME280;28892;55.640;37.532;2023-01-29T10:30:48;98415.94;;;0.10;55.16
43298;BME280;28892;55.640;37.532;2023-01-29T10:33:26;98416.13;;;-0.22;57.28
43298;BME280;28892;55.640;37.532;2023-01-29T10:35:59;98390.94;;;-0.02;57.33
43298;BME280;28892;55.640;37.532;2023-01-29T10:49:40;98376.28;;;-0.44;58.23
43298;BME280;28892;55.640;37.532;2023-01-29T10:52:28;98369.34;;;-0.24;57.70
43298;BME280;28892;55.640;37.532;2023-01-29T10:57:54;98359.81;;;0.06;57.85
43298;BME280;28892;55.640;37.532;2023-01-29T11:00:37;98360.50;;;0.18;57.46
43298;BME280;28892;55.640;37.532;2023-01-29T11:03:25;98358.00;;;0.46;57.20
43298;BME280;28892;55.640;37.532;2023-01-29T11:06:02;98362.81;;;0.31;56.62
43298;BME280;28892;55.640;37.532;2023-01-29T11:08:42;98347.88;;;0.13;56.86
43298;BME280;28892;55.640;37.532;2023-01-29T11:11:16;98344.97;;;0.26;57.04
43298;BME280;28892;55.640;37.532;2023-01-29T11:13:59;98342.50;;;0.45;56.49
43298;BME280;28892;55.640;37.532;2023-01-29T11:16:31;98317.41;;;0.24;56.37
43298;BME280;28892;55.640;37.532;2023-01-29T11:19:04;98323.00;;;-0.01;56.83
43298;BME280;28892;55.640;37.532;2023-01-29T11:21:30;98330.84;;;0.09;56.79
43298;BME280;28892;55.640;37.532;2023-01-29T11:24:13;98320.47;;;-0.51;58.72
43298;BME280;28892;55.640;37.532;2023-01-29T11:26:43;98335.97;;;-0.50;57.78
43298;BME280;28892;55.640;37.532;2023-01-29T11:32:03;98346.22;;;-0.89;60.46
43298;BME280;28892;55.640;37.532;2023-01-29T11:34:30;98337.63;;;-0.49;59.00
43298;BME280;28892;55.640;37.532;2023-01-29T11:37:01;98333.28;;;-0.19;58.20
43298;BME280;28892;55.640;37.532;2023-01-29T11:39:29;98316.69;;;-0.18;57.59
43298;BME280;28892;55.640;37.532;2023-01-29T11:42:00;98330.16;;;0.07;58.19
43298;BME280;28892;55.640;37.532;2023-01-29T11:44:42;98313.00;;;0.34;57.40
43298;BME280;28892;55.640;37.532;2023-01-29T11:47:30;98316.41;;;0.54;56.73
43298;BME280;28892;55.640;37.532;2023-01-29T11:50:00;98326.97;;;0.53;55.94
43298;BME280;28892;55.640;37.532;2023-01-29T11:52:38;98325.34;;;0.22;56.19
43298;BME280;28892;55.640;37.532;2023-01-29T11:55:30;98325.06;;;-0.14;57.72
43298;BME280;28892;55.640;37.532;2023-01-29T11:58:49;98312.72;;;-0.02;57.73
43298;BME280;28892;55.640;37.532;2023-01-29T12:01:08;98315.88;;;0.21;57.88
43298;BME280;28892;55.640;37.532;2023-01-29T12:03:39;98296.66;;;0.03;57.61
43298;BME280;28892;55.640;37.532;2023-01-29T12:06:18;98311.22;;;0.45;57.04
43298;BME280;28892;55.640;37.532;2023-01-29T12:08:56;98284.69;;;0.39;56.97
43298;BME280;28892;55.640;37.532;2023-01-29T12:11:27;98292.38;;;0.31;56.86
43298;BME280;28892;55.640;37.532;2023-01-29T12:13:55;98296.63;;;0.52;57.48
43298;BME280;28892;55.640;37.532;2023-01-29T12:19:10;98307.47;;;-0.22;58.62
43298;BME280;28892;55.640;37.532;2023-01-29T12:21:47;98295.16;;;0.00;58.58
43298;BME280;28892;55.640;37.532;2023-01-29T12:24:24;98305.59;;;0.30;58.15
43298;BME280;28892;55.640;37.532;2023-01-29T12:26:59;98296.25;;;0.17;57.69
43298;BME280;28892;55.640;37.532;2023-01-29T12:37:25;98314.56;;;-0.94;61.83
43298;BME280;28892;55.640;37.532;2023-01-29T12:39:53;98309.34;;;-0.63;60.31
43298;BME280;28892;55.640;37.532;2023-01-29T12:42:23;98312.47;;;-1.01;61.55
43298;BME280;28892;55.640;37.532;2023-01-29T12:44:58;98302.94;;;-0.90;62.07
43298;BME280;28892;55.640;37.532;2023-01-29T12:47:47;98308.44;;;-0.43;61.08
43298;BME280;28892;55.640;37.532;2023-01-29T12:50:20;98303.34;;;-0.44;60.86
43298;BME280;28892;55.640;37.532;2023-01-29T12:52:55;98306.13;;;-0.06;59.74
43298;BME280;28892;55.640;37.532;2023-01-29T12:55:42;98301.59;;;0.16;59.23
43298;BME280;28892;55.640;37.532;2023-01-29T12:58:14;98303.69;;;0.22;58.89
43298;BME280;28892;55.640;37.532;2023-01-29T13:00:45;98295.16;;;0.20;58.97
43298;BME280;28892;55.640;37.532;2023-01-29T13:03:20;98303.13;;;0.08;59.11
43298;BME280;28892;55.640;37.532;2023-01-29T13:05:57;98289.25;;;0.27;58.98
43298;BME280;28892;55.640;37.532;2023-01-29T13:08:36;98295.25;;;0.48;58.49
43298;BME280;28892;55.640;37.532;2023-01-29T13:11:07;98294.41;;;0.47;58.06
43298;BME280;28892;55.640;37.532;2023-01-29T13:14:23;98284.66;;;0.59;58.36
43298;BME280;28892;55.640;37.532;2023-01-29T13:17:00;98291.34;;;0.72;57.88
43298;BME280;28892;55.640;37.532;2023-01-29T13:19:30;98292.63;;;0.67;57.75
43298;BME280;28892;55.640;37.532;2023-01-29T13:22:03;98283.44;;;0.53;57.76
43298;BME280;28892;55.640;37.532;2023-01-29T13:24:38;98284.53;;;0.61;57.97
43298;BME280;28892;55.640;37.532;2023-01-29T13:27:21;98280.66;;;0.65;58.07
43298;BME280;28892;55.640;37.532;2023-01-29T13:29:48;98279.69;;;0.66;57.62
43298;BME280;28892;55.640;37.532;2023-01-29T13:32:26;98266.94;;;0.53;58.06
43298;BME280;28892;55.640;37.532;2023-01-29T13:35:10;98276.41;;;0.64;58.15
43298;BME280;28892;55.640;37.532;2023-01-29T13:37:46;98280.97;;;0.32;59.03
43298;BME280;28892;55.640;37.532;2023-01-29T13:40:34;98273.41;;;0.49;58.80
43298;BME280;28892;55.640;37.532;2023-01-29T13:43:39;98271.63;;;0.59;58.32
43298;BME280;28892;55.640;37.532;2023-01-29T13:46:25;98276.09;;;-0.10;59.20
43298;BME280;28892;55.640;37.532;2023-01-29T13:49:03;98257.00;;;-0.01;59.33
43298;BME280;28892;55.640;37.532;2023-01-29T13:51:39;98262.63;;;0.04;59.17
43298;BME280;28892;55.640;37.532;2023-01-29T13:54:23;98256.03;;;0.10;59.35
43298;BME280;28892;55.640;37.532;2023-01-29T13:57:02;98261.50;;;0.36;59.24
43298;BME280;28892;55.640;37.532;2023-01-29T13:59:52;98261.53;;;0.07;59.66
43298;BME280;28892;55.640;37.532;2023-01-29T14:02:31;98254.38;;;-0.01;59.65
43298;BME280;28892;55.640;37.532;2023-01-29T14:08:00;98256.69;;;0.32;59.15
43298;BME280;28892;55.640;37.532;2023-01-29T14:10:31;98250.22;;;0.36;59.28
43298;BME280;28892;55.640;37.532;2023-01-29T14:15:27;98241.63;;;0.16;59.48
43298;BME280;28892;55.640;37.532;2023-01-29T14:18:18;98254.81;;;0.24;60.34
43298;BME280;28892;55.640;37.532;2023-01-29T14:25:58;98227.44;;;0.38;59.73
43298;BME280;28892;55.640;37.532;2023-01-29T14:28:28;98244.75;;;0.29;59.98
43298;BME280;28892;55.640;37.532;2023-01-29T14:30:55;98234.31;;;0.29;59.27
43298;BME280;28892;55.640;37.532;2023-01-29T14:33:32;98239.13;;;-0.55;61.98
43298;BME280;28892;55.640;37.532;2023-01-29T14:36:03;98245.75;;;-0.21;61.75
43298;BME280;28892;55.640;37.532;2023-01-29T14:38:33;98229.84;;;-0.08;61.01
43298;BME280;28892;55.640;37.532;2023-01-29T14:41:07;98228.63;;;0.06;60.64
43298;BME280;28892;55.640;37.532;2023-01-29T14:43:33;98236.13;;;-0.01;60.56
43298;BME280;28892;55.640;37.532;2023-01-29T14:46:40;98242.19;;;-0.01;60.88
43298;BME280;28892;55.640;37.532;2023-01-29T14:49:07;98219.56;;;0.00;60.19
43298;BME280;28892;55.640;37.532;2023-01-29T14:51:35;98229.84;;;-0.08;60.73
43298;BME280;28892;55.640;37.532;2023-01-29T14:56:57;98231.16;;;0.25;60.38
43298;BME280;28892;55.640;37.532;2023-01-29T14:59:34;98236.69;;;0.12;60.53
43298;BME280;28892;55.640;37.532;2023-01-29T15:02:41;98220.59;;;0.27;60.54
43298;BME280;28892;55.640;37.532;2023-01-29T15:05:13;98222.69;;;0.13;60.51
43298;BME280;28892;55.640;37.532;2023-01-29T15:07:59;98222.41;;;0.17;60.96
43298;BME280;28892;55.640;37.532;2023-01-29T15:10:51;98222.84;;;0.02;61.37
43298;BME280;28892;55.640;37.532;2023-01-29T15:13:52;98219.41;;;0.02;61.67
43298;BME280;28892;55.640;37.532;2023-01-29T15:19:14;98230.78;;;0.01;61.57
43298;BME280;28892;55.640;37.532;2023-01-29T15:22:01;98211.97;;;0.17;60.97
43298;BME280;28892;55.640;37.532;2023-01-29T15:24:31;98217.06;;;0.18;60.63
43298;BME280;28892;55.640;37.532;2023-01-29T15:26:59;98224.50;;;-0.36;61.88
43298;BME280;28892;55.640;37.532;2023-01-29T15:29:26;98221.19;;;-0.38;62.58
43298;BME280;28892;55.640;37.532;2023-01-29T15:31:54;98219.97;;;-0.34;62.20